Time;durP1;ratioP1;P1;durP2;ratioP2;P2;SDS_P1;SDS_P2;PMS_P1;PMS_P2;Temp;Humidity;BMP_temperature;BMP_pressure;BME280_temperature;BME280_humidity;BME280_pressure;Samples;Min_cycle;Max_cycle;Signal;HPM_P1;HPM_P2
2021/09/12 00:01:10;;;;;;;;;;;;;;;21.94;28.75;97783.00;4926948;29;719;-81
2021/09/12 00:03:36;;;;;;;;;;;;;;;21.90;28.93;97777.44;4926165;29;996;-81
2021/09/12 00:06:01;;;;;;;;;;;;;;;21.79;28.78;97772.09;4926832;29;1919;-81
2021/09/12 00:08:27;;;;;;;;;;;;;;;21.69;28.97;97773.22;4927106;29;1015;-81
2021/09/12 00:10:52;;;;;;;;;;;;;;;21.75;28.81;97771.41;4927052;29;636;-81
2021/09/12 00:13:17;;;;;;;;;;;;;;;21.82;28.80;97771.22;4910491;29;831;-81
2021/09/12 00:15:43;;;;;;;;;;;;;;;21.79;28.64;97766.44;4926638;29;740;-81
2021/09/12 00:18:08;;;;;;;;;;;;;;;21.99;28.51;97766.22;4925913;29;942;-81
2021/09/12 00:20:34;;;;;;;;;;;;;;;21.94;28.52;97768.84;4926611;29;883;-81
2021/09/12 00:22:59;;;;;;;;;;;;;;;21.89;28.63;97760.91;4925934;29;890;-81
2021/09/12 00:25:25;;;;;;;;;;;;;;;21.83;28.66;97760.69;4926148;29;1902;-81
2021/09/12 00:27:50;;;;;;;;;;;;;;;22.02;28.95;97756.84;4926161;29;715;-81
2021/09/12 00:30:16;;;;;;;;;;;;;;;22.46;28.36;97761.91;4926951;29;659;-81
2021/09/12 00:32:41;;;;;;;;;;;;;;;22.60;27.94;97755.75;4925990;29;1075;-81
2021/09/12 00:35:09;;;;;;;;;;;;;;;22.46;27.96;97750.56;4926073;29;874;-81
2021/09/12 00:37:35;;;;;;;;;;;;;;;21.99;28.56;97745.59;4925934;29;896;-81
2021/09/12 00:40:00;;;;;;;;;;;;;;;21.85;28.96;97756.13;4925797;29;588;-81
2021/09/12 00:42:26;;;;;;;;;;;;;;;21.91;28.62;97747.06;4925963;29;1125;-81
2021/09/12 00:44:51;;;;;;;;;;;;;;;21.92;28.59;97745.84;4926509;29;668;-81
2021/09/12 00:47:17;;;;;;;;;;;;;;;21.92;28.72;97743.00;4909569;29;1904;-81
2021/09/12 00:49:43;;;;;;;;;;;;;;;21.88;29.02;97734.63;4926179;29;888;-81
2021/09/12 00:52:09;;;;;;;;;;;;;;;21.77;28.98;97751.16;4925571;29;900;-81
2021/09/12 00:54:35;;;;;;;;;;;;;;;21.79;29.17;97743.78;4909823;29;812;-81
2021/09/12 00:57:00;;;;;;;;;;;;;;;21.80;29.25;97751.03;4925875;29;644;-81
2021/09/12 00:59:25;;;;;;;;;;;;;;;21.93;28.89;97741.75;4926293;29;608;-81
2021/09/12 01:01:51;;;;;;;;;;;;;;;21.75;28.93;97754.44;4925210;29;1042;-81
2021/09/12 01:04:16;;;;;;;;;;;;;;;21.99;29.34;97745.59;4924711;29;859;-81
2021/09/12 01:06:42;;;;;;;;;;;;;;;22.41;28.24;97748.31;4925232;29;1961;-81
2021/09/12 01:09:07;;;;;;;;;;;;;;;22.53;28.20;97747.47;4909512;29;664;-81
2021/09/12 01:11:33;;;;;;;;;;;;;;;22.16;28.72;97744.25;4925259;29;775;-81
2021/09/12 01:13:58;;;;;;;;;;;;;;;21.99;28.77;97742.78;4925263;29;739;-81
2021/09/12 01:16:24;;;;;;;;;;;;;;;22.04;28.87;97742.19;4925615;29;949;-81
2021/09/12 01:18:49;;;;;;;;;;;;;;;21.93;28.75;97738.94;4925213;29;983;-81
2021/09/12 01:21:16;;;;;;;;;;;;;;;21.98;28.80;97741.97;4925034;29;1014;-81
2021/09/12 01:23:41;;;;;;;;;;;;;;;21.62;29.39;97745.16;4925076;29;742;-80
2021/09/12 01:26:07;;;;;;;;;;;;;;;21.81;29.05;97752.66;4909378;29;1907;-81
2021/09/12 01:28:33;;;;;;;;;;;;;;;21.79;29.00;97748.66;4909186;29;712;-81
2021/09/12 01:31:00;;;;;;;;;;;;;;;21.77;28.98;97757.63;4924722;29;940;-81
2021/09/12 01:33:26;;;;;;;;;;;;;;;21.92;28.89;97745.84;4924664;29;850;-81
2021/09/12 01:35:51;;;;;;;;;;;;;;;21.98;29.08;97747.66;4924930;29;821;-81
2021/09/12 01:38:17;;;;;;;;;;;;;;;22.02;28.62;97753.19;4925038;29;680;-81
2021/09/12 01:40:42;;;;;;;;;;;;;;;22.08;28.77;97749.34;4925761;29;692;-81
2021/09/12 01:43:08;;;;;;;;;;;;;;;21.87;28.89;97749.25;4924671;29;1157;-81
2021/09/12 01:45:33;;;;;;;;;;;;;;;21.83;28.90;97758.63;4924405;29;1907;-81
2021/09/12 01:48:00;;;;;;;;;;;;;;;21.82;29.12;97759.88;4924451;29;915;-81
2021/09/12 01:50:28;;;;;;;;;;;;;;;21.88;28.86;97757.28;4924638;29;996;-81
2021/09/12 01:52:54;;;;;;;;;;;;;;;21.78;28.94;97753.53;4908757;29;928;-80
2021/09/12 01:55:19;;;;;;;;;;;;;;;21.94;28.78;97746.19;4909036;29;760;-81
2021/09/12 01:57:45;;;;;;;;;;;;;;;21.80;28.79;97756.69;4924684;29;677;-81
2021/09/12 02:00:10;;;;;;;;;;;;;;;21.93;28.87;97750.25;4924083;29;1096;-80
2021/09/12 02:02:36;;;;;;;;;;;;;;;21.88;28.95;97739.50;4924099;29;968;-81
2021/09/12 02:05:01;;;;;;;;;;;;;;;21.69;28.90;97750.56;4924546;29;1077;-79
2021/09/12 02:07:27;;;;;;;;;;;;;;;21.89;28.63;97735.41;4908566;29;1992;-81
2021/09/12 02:09:52;;;;;;;;;;;;;;;21.94;28.48;97743.34;4924930;29;720;-81
2021/09/12 02:12:18;;;;;;;;;;;;;;;21.91;28.70;97738.56;4924269;29;624;-81
2021/09/12 02:14:43;;;;;;;;;;;;;;;22.19;28.89;97746.19;4923851;29;884;-81
2021/09/12 02:17:09;;;;;;;;;;;;;;;22.55;28.26;97742.16;4908043;29;974;-81
2021/09/12 02:19:34;;;;;;;;;;;;;;;22.39;28.39;97750.81;4925059;29;844;-81
2021/09/12 02:21:59;;;;;;;;;;;;;;;22.06;28.87;97737.66;4924161;29;676;-81
2021/09/12 02:24:28;;;;;;;;;;;;;;;22.00;28.89;97741.53;4908338;29;666;-81
2021/09/12 02:26:53;;;;;;;;;;;;;;;22.04;28.68;97736.53;4924647;29;1910;-81
2021/09/12 02:29:19;;;;;;;;;;;;;;;21.97;28.85;97748.09;4923610;29;952;-81
2021/09/12 02:31:44;;;;;;;;;;;;;;;21.92;28.88;97745.84;4924400;29;911;-81
2021/09/12 02:34:10;;;;;;;;;;;;;;;21.91;28.62;97745.03;4907916;29;906;-81
2021/09/12 02:36:35;;;;;;;;;;;;;;;21.85;28.89;97747.63;4923860;29;714;-81
2021/09/12 02:39:01;;;;;;;;;;;;;;;21.80;29.12;97748.19;4923906;29;680;-81
2021/09/12 02:41:26;;;;;;;;;;;;;;;21.88;28.75;97753.66;4924335;29;1040;-81
2021/09/12 02:43:52;;;;;;;;;;;;;;;21.88;29.03;97745.16;4907907;29;869;-81
2021/09/12 02:46:17;;;;;;;;;;;;;;;21.84;29.11;97750.94;4923397;29;1968;-81
2021/09/12 02:48:43;;;;;;;;;;;;;;;21.84;28.91;97745.25;4923680;29;940;-81
2021/09/12 02:51:08;;;;;;;;;;;;;;;21.83;28.95;97750.13;4924340;29;711;-81
2021/09/12 02:53:34;;;;;;;;;;;;;;;21.86;29.01;97737.09;4923397;29;835;-81
2021/09/12 02:55:59;;;;;;;;;;;;;;;21.82;28.76;97745.72;4907922;29;767;-80
2021/09/12 02:58:25;;;;;;;;;;;;;;;21.81;28.98;97741.31;4923841;29;1100;-80
2021/09/12 03:00:50;;;;;;;;;;;;;;;21.76;28.80;97750.38;4923112;29;834;-80
2021/09/12 03:03:16;;;;;;;;;;;;;;;21.67;29.12;97757.94;4923518;29;967;-80
2021/09/12 03:05:41;;;;;;;;;;;;;;;21.65;29.11;97749.09;4923328;29;1899;-80
2021/09/12 03:08:07;;;;;;;;;;;;;;;21.75;29.23;97754.44;4923271;29;783;-80
2021/09/12 03:10:32;;;;;;;;;;;;;;;22.23;28.85;97749.69;4924089;29;675;-80
2021/09/12 03:12:58;;;;;;;;;;;;;;;22.48;28.09;97750.88;4923673;29;913;-80
2021/09/12 03:15:23;;;;;;;;;;;;;;;22.40;28.34;97756.03;4923717;29;869;-80
2021/09/12 03:17:55;;;;;;;;;;;;;;;22.19;28.78;97760.34;4924879;29;975;-80
2021/09/12 03:20:20;;;;;;;;;;;;;;;21.99;29.17;97754.09;4927299;29;779;-79
2021/09/12 03:22:46;;;;;;;;;;;;;;;21.95;29.07;97751.38;4928013;29;676;-81
2021/09/12 03:25:11;;;;;;;;;;;;;;;22.01;28.91;97754.44;4927808;29;715;-80
2021/09/12 03:27:37;;;;;;;;;;;;;;;22.21;28.74;97752.19;4927354;29;1910;-80
2021/09/12 03:30:03;;;;;;;;;;;;;;;22.01;29.39;97746.72;4926948;29;943;-80
2021/09/12 03:32:28;;;;;;;;;;;;;;;21.85;29.79;97758.97;4927794;29;863;-80
2021/09/12 03:34:54;;;;;;;;;;;;;;;21.89;29.52;97758.06;4927642;29;626;-80
2021/09/12 03:37:19;;;;;;;;;;;;;;;21.94;29.72;97757.50;4927272;29;658;-80
2021/09/12 03:39:45;;;;;;;;;;;;;;;21.96;29.66;97752.16;4927725;29;593;-80
2021/09/12 03:42:10;;;;;;;;;;;;;;;21.98;29.39;97755.34;4926398;29;1147;-80
2021/09/12 03:44:36;;;;;;;;;;;;;;;22.12;29.38;97754.91;4927215;29;894;-80
2021/09/12 03:47:01;;;;;;;;;;;;;;;21.96;29.35;97757.84;4918324;29;1976;-80
2021/09/12 03:49:26;;;;;;;;;;;;;;;21.98;29.41;97756.16;4908369;29;1392;-80
2021/09/12 03:51:52;;;;;;;;;;;;;;;21.82;29.65;97768.38;4908601;29;620;-80
2021/09/12 03:54:17;;;;;;;;;;;;;;;21.93;29.84;97761.59;4908302;29;1032;-80
2021/09/12 03:56:43;;;;;;;;;;;;;;;21.82;29.63;97776.88;4908409;29;934;-80
2021/09/12 03:59:08;;;;;;;;;;;;;;;21.94;29.84;97783.00;4908316;29;946;-80
2021/09/12 04:01:34;;;;;;;;;;;;;;;21.93;29.46;97775.75;4891743;29;958;-80
2021/09/12 04:03:59;;;;;;;;;;;;;;;21.93;29.90;97775.75;4908198;29;1373;-80
2021/09/12 04:06:25;;;;;;;;;;;;;;;21.81;29.87;97780.13;4907557;29;1974;-80
2021/09/12 04:08:51;;;;;;;;;;;;;;;21.87;29.79;97786.06;4907395;29;1078;-80
2021/09/12 04:11:17;;;;;;;;;;;;;;;21.96;29.87;97780.50;4908138;29;964;-80
2021/09/12 04:13:42;;;;;;;;;;;;;;;21.90;30.04;97790.81;4907316;29;858;-80
2021/09/12 04:16:08;;;;;;;;;;;;;;;22.15;29.33;97776.69;4908162;29;644;-80
2021/09/12 04:18:33;;;;;;;;;;;;;;;21.88;30.23;97785.59;4907041;29;1212;-81
2021/09/12 04:20:59;;;;;;;;;;;;;;;21.88;29.84;97784.81;4908262;29;1424;-80
2021/09/12 04:23:24;;;;;;;;;;;;;;;21.88;30.12;97779.16;4907629;29;1145;-80
2021/09/12 04:25:50;;;;;;;;;;;;;;;21.56;30.38;97787.38;4907115;29;1907;-80
2021/09/12 04:28:16;;;;;;;;;;;;;;;22.07;29.91;97789.44;4907536;29;924;-80
2021/09/12 04:30:42;;;;;;;;;;;;;;;22.04;29.77;97793.19;4907968;29;698;-80
2021/09/12 04:33:08;;;;;;;;;;;;;;;21.96;29.83;97791.81;4906932;29;988;-80
2021/09/12 04:35:33;;;;;;;;;;;;;;;22.03;29.84;97794.44;4907880;29;738;-80
2021/09/12 04:37:59;;;;;;;;;;;;;;;22.04;29.53;97787.53;4906965;29;926;-80
2021/09/12 04:40:24;;;;;;;;;;;;;;;22.01;29.62;97785.59;4907401;29;855;-80
2021/09/12 04:42:50;;;;;;;;;;;;;;;22.06;29.56;97796.38;4907341;29;1124;-80
2021/09/12 04:45:15;;;;;;;;;;;;;;;21.96;29.91;97798.28;4907667;29;621;-80
2021/09/12 04:47:41;;;;;;;;;;;;;;;21.94;29.72;97800.00;4907516;29;1894;-80
2021/09/12 04:50:07;;;;;;;;;;;;;;;22.08;29.48;97793.88;4907442;29;636;-80
2021/09/12 04:52:33;;;;;;;;;;;;;;;22.08;29.76;97797.50;4907291;29;994;-80
2021/09/12 04:54:58;;;;;;;;;;;;;;;22.05;29.56;97794.78;4907344;29;856;-84
2021/09/12 04:57:24;;;;;;;;;;;;;;;21.96;29.76;97791.81;4906521;29;1357;-81
2021/09/12 04:59:49;;;;;;;;;;;;;;;21.95;29.81;97795.91;4906811;29;1309;-80
2021/09/12 05:02:15;;;;;;;;;;;;;;;21.99;29.87;97790.94;4907356;29;725;-80
2021/09/12 05:04:40;;;;;;;;;;;;;;;22.06;29.49;97797.16;4906314;29;820;-80
2021/09/12 05:07:06;;;;;;;;;;;;;;;21.93;29.89;97799.22;4905843;29;1891;-80
2021/09/12 05:09:31;;;;;;;;;;;;;;;21.84;29.91;97802.69;4906990;29;919;-80
2021/09/12 05:11:57;;;;;;;;;;;;;;;21.80;29.94;97793.50;4906350;29;943;-81
2021/09/12 05:14:25;;;;;;;;;;;;;;;21.83;30.24;97795.44;4906050;29;785;-81
2021/09/12 05:16:50;;;;;;;;;;;;;;;22.03;29.78;97797.28;4906048;29;1410;-80
2021/09/12 05:19:16;;;;;;;;;;;;;;;22.09;29.83;97790.59;4905978;29;1431;-80
2021/09/12 05:21:41;;;;;;;;;;;;;;;22.22;29.61;97790.59;4905622;29;920;-80
2021/09/12 05:24:07;;;;;;;;;;;;;;;22.06;29.65;97797.16;4906554;29;823;-80
2021/09/12 05:26:32;;;;;;;;;;;;;;;21.95;29.79;97795.91;4905766;29;1976;-80
2021/09/12 05:28:57;;;;;;;;;;;;;;;22.06;29.81;97780.16;4906673;29;660;-79
2021/09/12 05:31:23;;;;;;;;;;;;;;;22.27;29.68;97790.03;4905519;29;757;-79
2021/09/12 05:33:48;;;;;;;;;;;;;;;22.06;29.95;97785.03;4906736;29;685;-80
2021/09/12 05:36:14;;;;;;;;;;;;;;;21.83;30.58;97795.44;4906304;29;895;-80
2021/09/12 05:38:39;;;;;;;;;;;;;;;21.97;30.28;97787.78;4906144;29;904;-79
2021/09/12 05:41:06;;;;;;;;;;;;;;;21.98;30.21;97784.47;4905649;29;884;-80
2021/09/12 05:43:31;;;;;;;;;;;;;;;21.89;30.36;97787.19;4906489;29;1057;-79
2021/09/12 05:45:57;;;;;;;;;;;;;;;21.99;30.39;97776.78;4906259;29;2038;-79
2021/09/12 05:48:22;;;;;;;;;;;;;;;22.01;30.47;97777.09;4906353;29;632;-79
2021/09/12 05:50:47;;;;;;;;;;;;;;;21.95;30.60;97778.91;4906102;29;998;-79
2021/09/12 05:53:14;;;;;;;;;;;;;;;22.03;30.33;97781.09;4905976;29;864;-79
2021/09/12 05:55:39;;;;;;;;;;;;;;;22.09;30.36;97784.13;4906197;29;1201;-79
2021/09/12 05:58:05;;;;;;;;;;;;;;;22.00;30.39;97781.19;4906207;29;649;-80
2021/09/12 06:00:30;;;;;;;;;;;;;;;21.87;30.58;97774.75;4906225;29;691;-79
2021/09/12 06:02:56;;;;;;;;;;;;;;;21.89;30.57;97780.72;4906121;29;631;-79
2021/09/12 06:05:21;;;;;;;;;;;;;;;21.94;30.43;97783.78;4905719;29;959;-79
2021/09/12 06:07:47;;;;;;;;;;;;;;;22.04;30.31;97787.53;4905772;29;1980;-79
2021/09/12 06:10:12;;;;;;;;;;;;;;;21.98;30.25;97789.34;4905889;29;980;-79
2021/09/12 06:12:38;;;;;;;;;;;;;;;22.01;30.42;97779.94;4905336;29;688;-80
2021/09/12 06:15:03;;;;;;;;;;;;;;;22.06;30.35;97785.03;4905961;29;676;-79
2021/09/12 06:17:29;;;;;;;;;;;;;;;22.20;30.00;97787.44;4904872;29;1301;-78
2021/09/12 06:19:55;;;;;;;;;;;;;;;22.08;30.29;97788.22;4905461;29;916;-80
2021/09/12 06:22:20;;;;;;;;;;;;;;;22.08;30.46;97782.56;4905501;29;952;-80
2021/09/12 06:24:46;;;;;;;;;;;;;;;22.17;30.48;97785.50;4904821;29;836;-80
2021/09/12 06:27:11;;;;;;;;;;;;;;;22.16;30.31;97781.09;4905783;29;1952;-78
2021/09/12 06:29:38;;;;;;;;;;;;;;;22.08;30.65;97793.88;4904334;29;938;-80
2021/09/12 06:32:04;;;;;;;;;;;;;;;22.17;30.48;97784.72;4905403;29;723;-79
2021/09/12 06:34:29;;;;;;;;;;;;;;;22.28;30.26;97796.53;4904125;29;1001;-79
2021/09/12 06:36:56;;;;;;;;;;;;;;;22.13;30.54;97796.19;4904315;29;852;-79
2021/09/12 06:39:22;;;;;;;;;;;;;;;22.21;30.38;97786.19;4904381;29;900;-80
2021/09/12 06:41:48;;;;;;;;;;;;;;;22.25;30.62;97798.22;4904252;29;976;-79
2021/09/12 06:44:13;;;;;;;;;;;;;;;22.15;30.53;97798.56;4903999;29;865;-80
2021/09/12 06:46:39;;;;;;;;;;;;;;;22.19;30.61;97794.38;4905084;29;1911;-80
2021/09/12 06:49:04;;;;;;;;;;;;;;;22.23;30.82;97789.38;4904853;29;935;-80
2021/09/12 06:51:29;;;;;;;;;;;;;;;22.08;31.10;97802.38;4905023;29;959;-79
2021/09/12 06:53:55;;;;;;;;;;;;;;;22.16;30.62;97800.13;4904938;29;1005;-80
2021/09/12 06:56:20;;;;;;;;;;;;;;;22.06;31.10;97800.00;4905050;29;637;-80
2021/09/12 06:58:46;;;;;;;;;;;;;;;22.10;30.78;97794.22;4905040;29;720;-79
2021/09/12 07:01:11;;;;;;;;;;;;;;;22.30;30.53;97800.47;4905003;29;695;-79
2021/09/12 07:03:37;;;;;;;;;;;;;;;22.16;30.91;97795.25;4904665;29;928;-79
2021/09/12 07:06:04;;;;;;;;;;;;;;;22.28;30.57;97791.66;4903927;29;1904;-79
2021/09/12 07:08:30;;;;;;;;;;;;;;;22.17;31.14;97794.00;4904795;29;911;-80
2021/09/12 07:10:55;;;;;;;;;;;;;;;22.17;31.10;97796.06;4904881;29;708;-80
2021/09/12 07:13:21;;;;;;;;;;;;;;;22.12;31.01;97805.91;4904285;29;763;-80
2021/09/12 07:15:46;;;;;;;;;;;;;;;22.32;30.70;97785.84;4904941;29;625;-80
2021/09/12 07:18:12;;;;;;;;;;;;;;;22.12;31.37;97799.44;4904428;29;968;-80
2021/09/12 07:20:37;;;;;;;;;;;;;;;22.32;31.17;97797.19;4904355;29;954;-80
2021/09/12 07:23:03;;;;;;;;;;;;;;;22.31;31.14;97796.38;4904891;29;1076;-80
2021/09/12 07:25:28;;;;;;;;;;;;;;;22.32;30.95;97797.19;4905003;29;739;-79
2021/09/12 07:27:54;;;;;;;;;;;;;;;22.27;31.19;97807.03;4904564;29;1891;-80
2021/09/12 07:30:19;;;;;;;;;;;;;;;22.25;31.11;97795.38;4904865;29;646;-79
2021/09/12 07:32:45;;;;;;;;;;;;;;;22.31;31.22;97801.25;4903752;29;987;-80
2021/09/12 07:35:10;;;;;;;;;;;;;;;22.43;30.96;97802.50;4904671;29;829;-79
2021/09/12 07:37:36;;;;;;;;;;;;;;;22.33;30.91;97805.25;4903935;29;1011;-80
2021/09/12 07:40:02;;;;;;;;;;;;;;;22.42;31.04;97809.41;4903701;29;871;-79
2021/09/12 07:42:28;;;;;;;;;;;;;;;22.40;31.07;97809.09;4903898;29;1205;-79
2021/09/12 07:44:53;;;;;;;;;;;;;;;22.40;31.02;97803.41;4904566;29;680;-80
2021/09/12 07:47:19;;;;;;;;;;;;;;;22.32;31.33;97802.84;4904254;29;1911;-79
2021/09/12 07:49:44;;;;;;;;;;;;;;;22.27;31.57;97806.25;4904249;29;856;-80
2021/09/12 07:52:10;;;;;;;;;;;;;;;22.38;31.23;97794.56;4903808;29;1045;-80
2021/09/12 07:54:36;;;;;;;;;;;;;;;22.34;31.43;97806.03;4904505;29;707;-79
2021/09/12 07:57:01;;;;;;;;;;;;;;;22.33;31.40;97799.56;4904518;29;726;-80
2021/09/12 07:59:28;;;;;;;;;;;;;;;22.41;31.24;97796.50;4904485;29;751;-79
2021/09/12 08:01:53;;;;;;;;;;;;;;;22.44;30.83;97801.28;4904110;29;971;-79
2021/09/12 08:04:19;;;;;;;;;;;;;;;22.32;31.10;97797.97;4906802;29;849;-80
2021/09/12 08:06:44;;;;;;;;;;;;;;;22.41;30.89;97797.28;4907940;29;1974;-80
2021/09/12 08:09:10;;;;;;;;;;;;;;;22.41;30.77;97788.00;4922841;29;782;-80
2021/09/12 08:11:35;;;;;;;;;;;;;;;22.31;31.15;97793.56;4907830;29;605;-80
2021/09/12 08:14:01;;;;;;;;;;;;;;;22.30;30.73;97783.47;4907963;29;667;-79
2021/09/12 08:16:26;;;;;;;;;;;;;;;22.17;31.07;97785.50;4907532;29;1021;-80
2021/09/12 08:18:52;;;;;;;;;;;;;;;22.21;31.04;97780.53;4907490;29;886;-79
2021/09/12 08:21:17;;;;;;;;;;;;;;;22.20;31.14;97778.16;4907718;29;954;-80
2021/09/12 08:23:43;;;;;;;;;;;;;;;22.22;30.80;97782.09;4907715;29;679;-79
2021/09/12 08:26:08;;;;;;;;;;;;;;;22.23;30.83;97780.88;4907484;29;1974;-80
2021/09/12 08:28:34;;;;;;;;;;;;;;;22.34;30.78;97777.69;4907761;29;660;-80
2021/09/12 08:31:00;;;;;;;;;;;;;;;22.28;30.70;97779.50;4907513;29;992;-79
2021/09/12 08:33:25;;;;;;;;;;;;;;;22.22;30.91;97776.44;4906423;29;887;-79
2021/09/12 08:35:51;;;;;;;;;;;;;;;22.21;30.72;97779.72;4907488;29;950;-79
2021/09/12 08:38:16;;;;;;;;;;;;;;;22.30;30.63;97766.47;4907519;29;621;-79
2021/09/12 08:40:42;;;;;;;;;;;;;;;22.16;30.79;97771.81;4907348;29;571;-79
2021/09/12 08:43:08;;;;;;;;;;;;;;;22.48;30.46;97773.56;4907136;29;990;-79
2021/09/12 08:45:33;;;;;;;;;;;;;;;22.24;30.52;97767.50;4906402;29;971;-80
2021/09/12 08:47:59;;;;;;;;;;;;;;;22.26;30.62;97771.44;4905918;29;1002;-80
2021/09/12 08:50:24;;;;;;;;;;;;;;;22.33;30.65;97771.22;4906566;29;904;-79
2021/09/12 08:52:50;;;;;;;;;;;;;;;22.33;30.59;97764.78;4907240;29;698;-79
2021/09/12 08:55:15;;;;;;;;;;;;;;;22.27;30.72;97764.53;4907222;29;645;-80
2021/09/12 08:57:50;;;;;;;;;;;;;;;22.27;30.77;97764.53;4907072;29;711;-80
2021/09/12 09:00:22;;;;;;;;;;;;;;;22.26;30.63;97765.78;4906549;29;1345;-78
2021/09/12 09:02:47;;;;;;;;;;;;;;;22.25;30.56;97761.38;4906559;29;1341;-79
2021/09/12 09:05:13;;;;;;;;;;;;;;;22.42;30.17;97755.56;4906970;29;753;-80
2021/09/12 09:07:38;;;;;;;;;;;;;;;22.39;30.43;97753.66;4907059;29;1904;-80
2021/09/12 09:10:16;;;;;;;;;;;;;;;22.34;30.44;97755.81;4906801;29;1369;-80
2021/09/12 09:12:42;;;;;;;;;;;;;;;22.32;30.30;97766.00;4906642;29;1379;-80
2021/09/12 09:15:12;;;;;;;;;;;;;;;22.54;29.97;97754.75;4904406;29;860;-80
2021/09/12 09:17:42;;;;;;;;;;;;;;;22.43;30.14;97757.13;4905882;29;1054;-81
2021/09/12 09:20:08;;;;;;;;;;;;;;;22.33;30.32;97754.22;4906181;29;884;-80
2021/09/12 09:22:34;;;;;;;;;;;;;;;22.41;30.16;97748.31;4905843;29;1370;-81
2021/09/12 09:25:07;;;;;;;;;;;;;;;22.46;30.17;97747.72;4905975;29;720;-80
2021/09/12 09:27:51;;;;;;;;;;;;;;;22.30;30.23;97746.63;4905928;29;1974;-81
2021/09/12 09:30:16;;;;;;;;;;;;;;;22.34;30.20;97744.47;4906272;29;906;-80
2021/09/12 09:32:42;;;;;;;;;;;;;;;22.39;30.15;97739.47;4905971;29;1439;-81
2021/09/12 09:35:07;;;;;;;;;;;;;;;22.32;30.23;97740.50;4906548;29;632;-81
2021/09/12 09:37:33;;;;;;;;;;;;;;;22.29;30.32;97742.22;4905965;29;700;-81
2021/09/12 09:39:59;;;;;;;;;;;;;;;22.38;30.33;97732.19;4905756;29;771;-80
2021/09/12 09:42:34;;;;;;;;;;;;;;;22.27;30.31;97730.50;4905951;29;1369;-78
2021/09/12 09:45:00;;;;;;;;;;;;;;;22.38;30.21;97732.19;4905768;29;1353;-79
2021/09/12 09:47:27;;;;;;;;;;;;;;;22.36;30.35;97738.34;4905312;29;1914;-80
2021/09/12 09:50:05;;;;;;;;;;;;;;;22.27;30.51;97733.34;4905462;29;779;-80
2021/09/12 09:52:34;;;;;;;;;;;;;;;22.23;30.78;97727.03;4906080;29;1334;-81
2021/09/12 09:54:59;;;;;;;;;;;;;;;22.39;30.49;97722.47;4905143;29;938;-80
2021/09/12 09:57:25;;;;;;;;;;;;;;;22.51;30.00;97721.63;4906092;29;631;-80
2021/09/12 09:59:51;;;;;;;;;;;;;;;22.27;30.62;97722.00;4905739;29;912;-81
2021/09/12 10:02:17;;;;;;;;;;;;;;;22.55;30.20;97719.47;4905140;29;866;-81
2021/09/12 10:04:42;;;;;;;;;;;;;;;22.50;29.96;97734.22;4905574;29;1281;-80
2021/09/12 10:07:08;;;;;;;;;;;;;;;22.58;29.86;97724.22;4904796;29;1899;-81
2021/09/12 10:09:33;;;;;;;;;;;;;;;22.52;30.20;97711.88;4905307;29;740;-80
2021/09/12 10:12:02;;;;;;;;;;;;;;;22.42;30.05;97710.19;4905124;29;605;-80
2021/09/12 10:14:29;;;;;;;;;;;;;;;22.45;30.21;97709.28;4910584;29;1407;-80
2021/09/12 10:16:55;;;;;;;;;;;;;;;22.52;30.24;97709.03;4905481;29;959;-80
2021/09/12 10:19:37;;;;;;;;;;;;;;;22.51;29.98;97713.91;4905026;29;896;-81
2021/09/12 10:22:12;;;;;;;;;;;;;;;22.50;29.95;97717.22;4905110;29;655;-81
2021/09/12 10:25:15;;;;;;;;;;;;;;;22.53;30.04;97711.41;4904368;29;1393;-80
2021/09/12 10:27:44;;;;;;;;;;;;;;;22.34;30.09;97704.00;4895140;29;1982;-80
2021/09/12 10:30:29;;;;;;;;;;;;;;;22.39;30.22;97699.78;4904324;29;999;-80
2021/09/12 10:33:07;;;;;;;;;;;;;;;22.31;30.08;97697.19;4904387;29;951;-79
2021/09/12 10:35:36;;;;;;;;;;;;;;;22.35;30.39;97706.38;4905449;29;1337;-81
2021/09/12 10:38:01;;;;;;;;;;;;;;;22.45;30.29;97703.63;4889130;29;941;-80
2021/09/12 10:40:45;;;;;;;;;;;;;;;22.38;30.33;97698.97;4905409;29;665;-81
2021/09/12 10:43:23;;;;;;;;;;;;;;;22.43;30.21;97697.59;4905284;29;974;-81
2021/09/12 10:45:49;;;;;;;;;;;;;;;22.43;30.07;97689.88;4904820;29;1980;-80
2021/09/12 10:48:24;;;;;;;;;;;;;;;22.66;30.00;97688.69;4903995;29;918;-81
2021/09/12 10:50:49;;;;;;;;;;;;;;;22.53;29.66;97687.94;4903517;29;1285;-78
2021/09/12 10:53:15;;;;;;;;;;;;;;;22.49;30.02;97692.97;4893891;29;1482;-80
2021/09/12 10:55:57;;;;;;;;;;;;;;;22.52;30.01;97697.69;4904387;29;619;-80
2021/09/12 10:58:22;;;;;;;;;;;;;;;22.41;30.03;97698.06;4903833;29;1483;-80
2021/09/12 11:00:48;;;;;;;;;;;;;;;22.41;29.97;97703.72;4903937;29;907;-80
2021/09/12 11:03:17;;;;;;;;;;;;;;;22.44;29.90;97696.38;4904711;29;917;-80
2021/09/12 11:05:42;;;;;;;;;;;;;;;22.58;29.68;97696.63;4904935;29;1969;-80
2021/09/12 11:08:08;;;;;;;;;;;;;;;22.48;30.00;97689.31;4904867;29;869;-80
2021/09/12 11:10:40;;;;;;;;;;;;;;;22.47;29.88;97696.22;4904382;29;1459;-80
2021/09/12 11:13:05;;;;;;;;;;;;;;;22.49;29.93;97692.97;4903712;29;793;-80
2021/09/12 11:15:31;;;;;;;;;;;;;;;22.39;29.80;97694.13;4903340;29;834;-80
2021/09/12 11:17:56;;;;;;;;;;;;;;;22.40;29.96;97690.81;4904482;29;891;-80
2021/09/12 11:20:22;;;;;;;;;;;;;;;22.35;30.17;97683.69;4904049;29;983;-80
2021/09/12 11:22:54;;;;;;;;;;;;;;;22.45;30.04;97680.94;4904088;29;1441;-80
2021/09/12 11:25:19;;;;;;;;;;;;;;;22.48;29.75;97680.00;4904898;29;562;-81
2021/09/12 11:27:58;;;;;;;;;;;;;;;22.66;29.43;97685.06;4903687;29;1982;-80
2021/09/12 11:30:24;;;;;;;;;;;;;;;22.43;29.82;97677.75;4903206;29;1004;-81
2021/09/12 11:32:50;;;;;;;;;;;;;;;22.40;29.86;97678.69;4904289;29;894;-81
2021/09/12 11:35:16;;;;;;;;;;;;;;;22.61;29.60;97683.59;4904118;29;921;-80
2021/09/12 11:37:41;;;;;;;;;;;;;;;22.54;29.74;97683.88;4904259;29;593;-80
2021/09/12 11:40:07;;;;;;;;;;;;;;;22.47;29.95;97679.22;4907658;29;671;-80
2021/09/12 11:42:33;;;;;;;;;;;;;;;22.36;29.86;97678.81;4907669;29;1022;-80
2021/09/12 11:44:58;;;;;;;;;;;;;;;22.48;29.90;97682.84;4908293;29;938;-80
2021/09/12 11:47:24;;;;;;;;;;;;;;;22.41;29.89;97668.94;4907066;29;1995;-79
2021/09/12 11:49:59;;;;;;;;;;;;;;;22.15;30.11;97680.34;4907377;29;947;-82
2021/09/12 11:52:31;;;;;;;;;;;;;;;22.36;29.99;97676.75;4892698;29;1284;-81
2021/09/12 11:54:57;;;;;;;;;;;;;;;22.51;29.48;97673.44;4907732;29;751;-81
2021/09/12 11:57:22;;;;;;;;;;;;;;;22.41;29.92;97669.72;4908364;29;691;-81
2021/09/12 11:59:48;;;;;;;;;;;;;;;22.65;29.49;97667.25;4907375;29;959;-80
2021/09/12 12:02:14;;;;;;;;;;;;;;;22.43;29.77;97660.75;4907139;29;904;-80
2021/09/12 12:04:40;;;;;;;;;;;;;;;22.56;29.42;97667.97;4907312;29;860;-80
2021/09/12 12:07:06;;;;;;;;;;;;;;;22.50;29.67;97654.84;4907406;29;1939;-80
2021/09/12 12:09:41;;;;;;;;;;;;;;;22.36;29.77;97656.13;4907264;29;740;-80
2021/09/12 12:12:07;;;;;;;;;;;;;;;22.39;29.78;97654.44;4908173;29;667;-80
2021/09/12 12:14:33;;;;;;;;;;;;;;;22.34;29.91;97665.09;4906862;29;1382;-80
2021/09/12 12:17:07;;;;;;;;;;;;;;;22.48;29.86;97668.66;4907613;29;897;-79
2021/09/12 12:19:36;;;;;;;;;;;;;;;22.53;29.34;97666.03;4907193;29;967;-79
2021/09/12 12:22:05;;;;;;;;;;;;;;;22.28;29.99;97655.59;4907802;29;675;-80
2021/09/12 12:24:38;;;;;;;;;;;;;;;22.43;29.56;97658.69;4908505;29;1263;-80
2021/09/12 12:27:07;;;;;;;;;;;;;;;22.45;29.56;97652.59;4906772;29;1972;-80
2021/09/12 12:29:33;;;;;;;;;;;;;;;22.59;29.39;97660.59;4906628;29;892;-80
2021/09/12 12:31:59;;;;;;;;;;;;;;;22.58;29.22;97653.31;4907690;29;827;-80
2021/09/12 12:34:44;;;;;;;;;;;;;;;22.57;29.51;97652.53;4907266;29;1436;-80
2021/09/12 12:37:14;;;;;;;;;;;;;;;22.49;29.68;97653.25;4906995;29;713;-80
2021/09/12 12:39:40;;;;;;;;;;;;;;;22.48;29.70;97660.16;4906620;29;794;-80
2021/09/12 12:42:06;;;;;;;;;;;;;;;22.34;30.06;97653.75;4906320;29;994;-81
2021/09/12 12:44:41;;;;;;;;;;;;;;;22.51;29.54;97656.41;4906887;29;1376;-80
2021/09/12 12:47:06;;;;;;;;;;;;;;;22.52;29.57;97658.00;4905995;29;1907;-80
2021/09/12 12:49:32;;;;;;;;;;;;;;;22.54;29.58;97653.47;4906151;29;885;-80
2021/09/12 12:52:04;;;;;;;;;;;;;;;22.29;29.70;97651.50;4907242;29;707;-81
2021/09/12 12:54:32;;;;;;;;;;;;;;;22.45;29.63;97649.75;4906197;29;873;-80
2021/09/12 12:56:58;;;;;;;;;;;;;;;22.49;29.44;97654.06;4906329;29;1536;-81
2021/09/12 12:59:23;;;;;;;;;;;;;;;22.40;29.61;97656.81;4904096;29;928;-81
2021/09/12 13:01:49;;;;;;;;;;;;;;;22.42;29.52;97664.84;4906546;29;1352;-80